createdAt,value
2019-02-15T00:00:55.980Z,1021.55
2019-02-15T00:01:55.969Z,1021.61
2019-02-15T00:02:55.998Z,1021.61
2019-02-15T00:03:55.948Z,1021.55
2019-02-15T00:04:55.935Z,1021.63
2019-02-15T00:05:55.926Z,1021.61
2019-02-15T00:06:55.911Z,1021.59
2019-02-15T00:07:55.901Z,1021.64
2019-02-15T00:08:55.906Z,1021.60
2019-02-15T00:09:55.876Z,1021.59
2019-02-15T00:10:55.865Z,1021.59
2019-02-15T00:11:55.854Z,1021.61
2019-02-15T00:12:55.841Z,1021.57
2019-02-15T00:13:55.872Z,1021.58
2019-02-15T00:14:55.818Z,1021.61
2019-02-15T00:15:55.807Z,1021.59
2019-02-15T00:16:55.797Z,1021.60
2019-02-15T00:17:55.784Z,1021.55
2019-02-15T00:18:55.773Z,1021.59
2019-02-15T00:19:55.778Z,1021.54
2019-02-15T00:20:55.749Z,1021.49
2019-02-15T00:21:55.737Z,1021.51
2019-02-15T00:22:55.726Z,1021.51
2019-02-15T00:23:55.714Z,1021.53
2019-02-15T00:24:55.719Z,1021.51
2019-02-15T00:25:55.691Z,1021.49
2019-02-15T00:26:55.680Z,1021.51
2019-02-15T00:27:55.670Z,1021.51
2019-02-15T00:28:55.657Z,1021.45
2019-02-15T00:29:55.666Z,1021.44
2019-02-15T00:30:55.634Z,1021.50
2019-02-15T00:31:55.621Z,1021.49
2019-02-15T00:32:55.609Z,1021.50
2019-02-15T00:33:55.599Z,1021.48
2019-02-15T00:34:55.611Z,1021.48
2019-02-15T00:35:55.575Z,1021.46
2019-02-15T00:36:55.563Z,1021.47
2019-02-15T00:37:55.551Z,1021.42
2019-02-15T00:38:55.547Z,1021.42
2019-02-15T00:39:55.531Z,1021.48
2019-02-15T00:40:55.537Z,1021.42
2019-02-15T00:41:55.504Z,1021.44
2019-02-15T00:42:55.493Z,1021.42
2019-02-15T00:43:55.482Z,1021.41
2019-02-15T00:44:55.473Z,1021.42
2019-02-15T00:45:55.485Z,1021.38
2019-02-15T00:46:55.447Z,1021.39
2019-02-15T00:47:55.436Z,1021.38
2019-02-15T00:48:55.425Z,1021.35
2019-02-15T00:49:55.412Z,1021.42
2019-02-15T00:50:55.402Z,1021.41
2019-02-15T00:51:55.410Z,1021.42
2019-02-15T00:52:55.378Z,1021.39
2019-02-15T00:53:55.367Z,1021.38
2019-02-15T00:54:55.355Z,1021.42
2019-02-15T00:55:55.345Z,1021.42
2019-02-15T00:56:55.353Z,1021.40
2019-02-15T00:57:55.323Z,1021.43
2019-02-15T00:58:55.309Z,1021.41
2019-02-15T00:59:55.295Z,1021.48
2019-02-15T01:00:55.286Z,1021.35
2019-02-15T01:01:55.294Z,1021.40
2019-02-15T01:02:55.261Z,1021.41
2019-02-15T01:03:55.253Z,1021.42
2019-02-15T01:04:55.239Z,1021.38
2019-02-15T01:05:55.228Z,1021.40
2019-02-15T01:06:55.233Z,1021.34
2019-02-15T01:07:55.205Z,1021.38
2019-02-15T01:08:55.192Z,1021.35
2019-02-15T01:09:55.182Z,1021.42
2019-02-15T01:10:55.168Z,1021.38
2019-02-15T01:11:55.182Z,1021.39
2019-02-15T01:12:55.150Z,1021.32
2019-02-15T01:13:55.132Z,1021.35
2019-02-15T01:14:55.124Z,1021.31
2019-02-15T01:15:55.117Z,1021.31
2019-02-15T01:16:55.098Z,1021.30
2019-02-15T01:17:55.106Z,1021.26
2019-02-15T01:18:55.079Z,1021.27
2019-02-15T01:19:55.063Z,1021.27
2019-02-15T01:20:55.052Z,1021.28
2019-02-15T01:21:55.047Z,1021.23
2019-02-15T01:22:55.049Z,1021.28
2019-02-15T01:23:55.017Z,1021.23
2019-02-15T01:24:55.009Z,1021.19
2019-02-15T01:25:54.995Z,1021.25
2019-02-15T01:26:54.986Z,1021.26
2019-02-15T01:27:54.988Z,1021.22
2019-02-15T01:28:54.960Z,1021.22
2019-02-15T01:29:54.948Z,1021.25
2019-02-15T01:30:54.936Z,1021.22
2019-02-15T01:31:54.926Z,1021.24
2019-02-15T01:32:54.938Z,1021.20
2019-02-15T01:33:54.901Z,1021.17
2019-02-15T01:34:54.889Z,1021.16
2019-02-15T01:35:54.879Z,1021.16
2019-02-15T01:36:54.867Z,1021.12
2019-02-15T01:37:54.854Z,1021.13
2019-02-15T01:38:54.861Z,1021.12
2019-02-15T01:39:54.831Z,1021.07
2019-02-15T01:40:54.821Z,1021.08
2019-02-15T01:41:54.809Z,1021.06
2019-02-15T01:42:54.795Z,1021.04
2019-02-15T01:43:54.805Z,1020.99
2019-02-15T01:44:54.775Z,1021.03
2019-02-15T01:45:54.764Z,1020.97
2019-02-15T01:46:54.756Z,1020.94
2019-02-15T01:47:54.741Z,1020.95
2019-02-15T01:48:54.744Z,1020.97
2019-02-15T01:49:54.718Z,1020.94
2019-02-15T01:50:54.704Z,1020.96
2019-02-15T01:51:54.694Z,1020.98
2019-02-15T01:52:54.684Z,1020.91
2019-02-15T01:53:54.694Z,1020.92
2019-02-15T01:54:54.657Z,1020.90
2019-02-15T01:55:54.645Z,1020.93
2019-02-15T01:56:54.633Z,1020.89
2019-02-15T01:57:54.621Z,1020.89
2019-02-15T01:58:54.612Z,1020.91
2019-02-15T01:59:54.618Z,1020.87
2019-02-15T02:00:54.626Z,1020.85
2019-02-15T02:01:54.574Z,1020.82
2019-02-15T02:02:54.565Z,1020.80
2019-02-15T02:03:54.594Z,1020.83
2019-02-15T02:04:54.560Z,1020.86
2019-02-15T02:05:54.529Z,1020.85
2019-02-15T02:06:54.519Z,1020.86
2019-02-15T02:07:54.505Z,1020.80
2019-02-15T02:08:54.497Z,1020.84
2019-02-15T02:09:54.506Z,1020.82
2019-02-15T02:10:54.470Z,1020.80
2019-02-15T02:11:54.461Z,1020.81
2019-02-15T02:12:54.451Z,1020.81
2019-02-15T02:13:54.436Z,1020.80
2019-02-15T02:14:54.423Z,1020.80
2019-02-15T02:15:54.435Z,1020.75
2019-02-15T02:16:54.402Z,1020.78
2019-02-15T02:17:54.390Z,1020.77
2019-02-15T02:18:54.396Z,1020.72
2019-02-15T02:19:54.365Z,1020.70
2019-02-15T02:20:54.357Z,1020.70
2019-02-15T02:21:54.343Z,1020.68
2019-02-15T02:22:54.331Z,1020.71
2019-02-15T02:23:54.337Z,1020.64
2019-02-15T02:24:54.307Z,1020.67
2019-02-15T02:25:54.295Z,1020.64
2019-02-15T02:26:54.284Z,1020.67
2019-02-15T02:27:54.353Z,1020.66
2019-02-15T02:28:54.280Z,1020.65
2019-02-15T02:29:54.251Z,1020.67
2019-02-15T02:30:54.238Z,1020.69
2019-02-15T02:31:54.227Z,1020.67
2019-02-15T02:32:54.215Z,1020.66
2019-02-15T02:33:54.222Z,1020.62
2019-02-15T02:34:54.766Z,1020.63
2019-02-15T02:35:54.184Z,1020.64
2019-02-15T02:36:54.170Z,1020.61
2019-02-15T02:37:54.160Z,1020.62
2019-02-15T02:38:54.164Z,1020.61
2019-02-15T02:39:54.132Z,1020.61
2019-02-15T02:40:54.124Z,1020.62
2019-02-15T02:41:54.109Z,1020.65
2019-02-15T02:42:54.099Z,1020.65
2019-02-15T02:43:59.689Z,1020.65
2019-02-15T02:44:55.074Z,1020.66
2019-02-15T02:45:54.064Z,1020.65
2019-02-15T02:46:54.051Z,1020.65
2019-02-15T02:47:54.041Z,1020.67
2019-02-15T02:48:54.053Z,1020.57
2019-02-15T02:49:54.023Z,1020.63
2019-02-15T02:50:54.006Z,1020.61
2019-02-15T02:51:53.993Z,1020.62
2019-02-15T02:52:53.985Z,1020.61
2019-02-15T02:53:53.991Z,1020.61
2019-02-15T02:54:53.968Z,1020.59
2019-02-15T02:55:53.949Z,1020.62
2019-02-15T02:56:53.936Z,1020.64
2019-02-15T02:57:53.924Z,1020.63
2019-02-15T02:58:53.959Z,1020.65
2019-02-15T02:59:53.900Z,1020.63
2019-02-15T03:00:53.890Z,1020.62
2019-02-15T03:01:53.877Z,1020.64
2019-02-15T03:02:53.866Z,1020.55
2019-02-15T03:03:53.858Z,1020.58
2019-02-15T03:04:53.862Z,1020.56
2019-02-15T03:05:53.832Z,1020.51
2019-02-15T03:06:53.827Z,1020.52
2019-02-15T03:07:53.846Z,1020.57
2019-02-15T03:08:53.796Z,1020.50
2019-02-15T03:09:53.803Z,1020.57
2019-02-15T03:10:53.772Z,1020.52
2019-02-15T03:11:53.763Z,1020.51
2019-02-15T03:12:53.749Z,1020.53
2019-02-15T03:13:53.740Z,1020.51
2019-02-15T03:14:53.747Z,1020.53
2019-02-15T03:15:53.717Z,1020.52
2019-02-15T03:16:53.702Z,1020.49
2019-02-15T03:17:53.695Z,1020.43
2019-02-15T03:18:53.680Z,1020.44
2019-02-15T03:19:53.687Z,1020.45
2019-02-15T03:20:53.658Z,1020.47
2019-02-15T03:21:53.645Z,1020.47
2019-02-15T03:22:53.634Z,1020.47
2019-02-15T03:23:53.622Z,1020.46
2019-02-15T03:24:53.629Z,1020.43
2019-02-15T03:25:53.598Z,1020.40
2019-02-15T03:26:53.587Z,1020.39
2019-02-15T03:27:53.580Z,1020.36
2019-02-15T03:28:53.562Z,1020.33
2019-02-15T03:29:53.588Z,1020.33
2019-02-15T03:30:53.542Z,1020.32
2019-02-15T03:31:53.538Z,1020.28
2019-02-15T03:32:53.518Z,1020.30
2019-02-15T03:33:53.506Z,1020.26
2019-02-15T03:34:53.498Z,1020.31
2019-02-15T03:35:53.505Z,1020.26
2019-02-15T03:36:53.473Z,1020.24
2019-02-15T03:37:53.457Z,1020.31
2019-02-15T03:38:53.448Z,1020.30
2019-02-15T03:39:53.448Z,1020.31
2019-02-15T03:40:53.446Z,1020.27
2019-02-15T03:41:53.412Z,1020.28
2019-02-15T03:42:53.402Z,1020.24
2019-02-15T03:43:53.391Z,1020.30
2019-02-15T03:44:53.380Z,1020.29
2019-02-15T03:45:53.386Z,1020.27
2019-02-15T03:46:53.353Z,1020.21
2019-02-15T03:47:53.342Z,1020.28
2019-02-15T03:48:53.334Z,1020.26
2019-02-15T03:49:53.318Z,1020.21
2019-02-15T03:50:53.339Z,1020.24
2019-02-15T03:51:53.299Z,1020.26
2019-02-15T03:52:53.291Z,1020.25
2019-02-15T03:53:53.272Z,1020.27
2019-02-15T03:54:53.261Z,1020.23
2019-02-15T03:55:53.249Z,1020.27
2019-02-15T03:56:53.260Z,1020.25
2019-02-15T03:57:53.229Z,1020.21
2019-02-15T03:58:53.216Z,1020.21
2019-02-15T03:59:53.205Z,1020.23
2019-02-15T04:00:53.190Z,1020.21
2019-02-15T04:01:53.198Z,1020.21
2019-02-15T04:02:53.169Z,1020.21
2019-02-15T04:03:53.163Z,1020.22
2019-02-15T04:04:53.145Z,1020.20
2019-02-15T04:05:53.134Z,1020.22
2019-02-15T04:06:53.140Z,1020.21
2019-02-15T04:07:53.122Z,1020.15
2019-02-15T04:08:53.100Z,1020.20
2019-02-15T04:09:53.092Z,1020.13
2019-02-15T04:10:53.077Z,1020.18
2019-02-15T04:11:53.081Z,1020.17
2019-02-15T04:12:53.053Z,1020.14
2019-02-15T04:13:53.057Z,1020.17
2019-02-15T04:14:53.029Z,1020.17
2019-02-15T04:15:53.019Z,1020.18
2019-02-15T04:16:53.025Z,1020.17
2019-02-15T04:17:52.999Z,1020.20
2019-02-15T04:18:52.984Z,1020.17
2019-02-15T04:19:52.973Z,1020.18
2019-02-15T04:20:52.960Z,1020.21
2019-02-15T04:21:52.972Z,1020.19
2019-02-15T04:22:52.942Z,1020.17
2019-02-15T04:23:52.930Z,1020.13
2019-02-15T04:24:52.913Z,1020.11
2019-02-15T04:25:52.900Z,1020.14
2019-02-15T04:26:52.889Z,1020.14
2019-02-15T04:27:52.902Z,1020.19
2019-02-15T04:28:52.865Z,1020.18
2019-02-15T04:29:52.855Z,1020.14
2019-02-15T04:30:52.844Z,1020.18
2019-02-15T04:31:52.852Z,1020.17
2019-02-15T04:32:52.838Z,1020.18
2019-02-15T04:33:52.808Z,1020.20
2019-02-15T04:34:52.796Z,1020.16
2019-02-15T04:35:52.784Z,1020.14
2019-02-15T04:36:52.773Z,1020.16
2019-02-15T04:37:52.780Z,1020.20
2019-02-15T04:38:52.754Z,1020.20
2019-02-15T04:39:52.739Z,1020.15
2019-02-15T04:40:52.739Z,1020.15
2019-02-15T04:41:52.714Z,1020.22
2019-02-15T04:42:52.766Z,1020.19
2019-02-15T04:43:52.692Z,1020.21
2019-02-15T04:44:52.679Z,1020.24
2019-02-15T04:45:52.672Z,1020.24
2019-02-15T04:46:52.656Z,1020.21
2019-02-15T04:47:52.663Z,1020.25
2019-02-15T04:48:52.633Z,1020.19
2019-02-15T04:49:52.621Z,1020.26
2019-02-15T04:50:52.610Z,1020.24
2019-02-15T04:51:52.599Z,1020.22
2019-02-15T04:52:52.608Z,1020.24
2019-02-15T04:53:52.579Z,1020.18
2019-02-15T04:54:52.563Z,1020.24
2019-02-15T04:55:52.554Z,1020.21
2019-02-15T04:56:52.541Z,1020.19
2019-02-15T04:57:52.559Z,1020.21
2019-02-15T04:58:52.554Z,1020.21
2019-02-15T04:59:52.596Z,1020.20
2019-02-15T05:00:52.492Z,1020.24
2019-02-15T05:01:52.482Z,1020.30
2019-02-15T05:02:52.469Z,1020.26
2019-02-15T05:03:52.478Z,1020.25
2019-02-15T05:04:52.448Z,1020.31
2019-02-15T05:05:52.438Z,1020.24
2019-02-15T05:06:52.424Z,1020.25
2019-02-15T05:07:52.418Z,1020.24
2019-02-15T05:08:52.421Z,1020.28
2019-02-15T05:09:52.390Z,1020.22
2019-02-15T05:10:52.377Z,1020.22
2019-02-15T05:11:52.370Z,1020.20
2019-02-15T05:12:52.354Z,1020.18
2019-02-15T05:13:52.359Z,1020.24
2019-02-15T05:14:53.419Z,1020.27
2019-02-15T05:15:52.319Z,1020.20
2019-02-15T05:16:52.309Z,1020.26
2019-02-15T05:17:52.294Z,1020.24
2019-02-15T05:18:52.304Z,1020.22
2019-02-15T05:19:52.278Z,1020.28
2019-02-15T05:20:52.267Z,1020.24
2019-02-15T05:21:52.249Z,1020.24
2019-02-15T05:22:52.242Z,1020.25
2019-02-15T05:23:52.300Z,1020.21
2019-02-15T05:24:52.216Z,1020.25
2019-02-15T05:25:52.201Z,1020.24
2019-02-15T05:26:52.192Z,1020.22
2019-02-15T05:27:52.179Z,1020.22
2019-02-15T05:28:52.169Z,1020.23
2019-02-15T05:29:52.176Z,1020.20
2019-02-15T05:30:52.144Z,1020.19
2019-02-15T05:31:52.137Z,1020.23
2019-02-15T05:32:52.122Z,1020.23
2019-02-15T05:33:52.111Z,1020.21
2019-02-15T05:34:52.115Z,1020.20
2019-02-15T05:35:52.107Z,1020.20
2019-02-15T05:36:52.096Z,1020.20
2019-02-15T05:37:52.061Z,1020.22
2019-02-15T05:38:52.088Z,1020.18
2019-02-15T05:39:52.062Z,1020.22
2019-02-15T05:40:52.030Z,1020.22
2019-02-15T05:41:52.020Z,1020.26
2019-02-15T05:42:52.007Z,1020.21
2019-02-15T05:43:51.994Z,1020.25
2019-02-15T05:44:52.009Z,1020.21
2019-02-15T05:45:52.025Z,1020.20
2019-02-15T05:46:51.959Z,1020.24
2019-02-15T05:47:51.947Z,1020.28
2019-02-15T05:48:51.938Z,1020.23
2019-02-15T05:49:51.945Z,1020.28
2019-02-15T05:50:51.919Z,1020.27
2019-02-15T05:51:51.902Z,1020.27
2019-02-15T05:52:51.891Z,1020.24
2019-02-15T05:53:51.879Z,1020.27
2019-02-15T05:54:51.890Z,1020.28
2019-02-15T05:55:51.923Z,1020.28
2019-02-15T05:56:51.846Z,1020.29
2019-02-15T05:57:51.835Z,1020.27
2019-02-15T05:58:51.822Z,1020.27
2019-02-15T05:59:51.812Z,1020.25
2019-02-15T06:00:51.821Z,1020.27
2019-02-15T06:01:51.791Z,1020.30
2019-02-15T06:02:51.786Z,1020.30
2019-02-15T06:03:51.767Z,1020.30
2019-02-15T06:04:51.754Z,1020.33
2019-02-15T06:05:51.762Z,1020.33
2019-02-15T06:06:51.735Z,1020.32
2019-02-15T06:07:51.719Z,1020.38
2019-02-15T06:08:51.712Z,1020.36
2019-02-15T06:09:51.698Z,1020.34
2019-02-15T06:10:51.709Z,1020.33
2019-02-15T06:11:51.677Z,1020.34
2019-02-15T06:12:51.663Z,1020.38
2019-02-15T06:13:51.654Z,1020.35
2019-02-15T06:14:51.644Z,1020.36
2019-02-15T06:15:51.647Z,1020.33
2019-02-15T06:16:51.621Z,1020.34
2019-02-15T06:17:51.604Z,1020.34
2019-02-15T06:18:51.593Z,1020.34
2019-02-15T06:19:51.582Z,1020.29
2019-02-15T06:20:51.593Z,1020.35
2019-02-15T06:21:51.608Z,1020.35
2019-02-15T06:22:51.546Z,1020.36
2019-02-15T06:23:51.536Z,1020.31
2019-02-15T06:24:51.526Z,1020.29
2019-02-15T06:25:51.527Z,1020.31
2019-02-15T06:26:51.520Z,1020.36
2019-02-15T06:27:51.490Z,1020.32
2019-02-15T06:28:51.478Z,1020.31
2019-02-15T06:29:51.472Z,1020.35
2019-02-15T06:30:51.461Z,1020.38
2019-02-15T06:31:51.463Z,1020.34
2019-02-15T06:32:51.438Z,1020.27
2019-02-15T06:33:51.420Z,1020.32
2019-02-15T06:34:51.412Z,1020.31
2019-02-15T06:35:51.398Z,1020.32
2019-02-15T06:36:51.467Z,1020.30
2019-02-15T06:37:51.375Z,1020.32
2019-02-15T06:38:51.363Z,1020.29
2019-02-15T06:39:51.351Z,1020.29
2019-02-15T06:40:51.340Z,1020.28
2019-02-15T06:41:51.368Z,1020.29
2019-02-15T06:42:51.318Z,1020.25
2019-02-15T06:43:51.309Z,1020.20
2019-02-15T06:44:51.297Z,1020.27
2019-02-15T06:45:51.287Z,1020.31
2019-02-15T06:46:51.295Z,1020.27
2019-02-15T06:47:51.262Z,1020.30
2019-02-15T06:48:51.252Z,1020.25
2019-02-15T06:49:51.242Z,1020.26
2019-02-15T06:50:51.229Z,1020.29
2019-02-15T06:51:51.235Z,1020.31
2019-02-15T06:52:51.214Z,1020.27
2019-02-15T06:53:51.191Z,1020.29
2019-02-15T06:54:51.184Z,1020.31
2019-02-15T06:55:51.170Z,1020.31
2019-02-15T06:56:51.182Z,1020.32
2019-02-15T06:57:51.151Z,1020.33
2019-02-15T06:58:51.135Z,1020.35
2019-02-15T06:59:51.126Z,1020.36
2019-02-15T07:00:51.115Z,1020.35
2019-02-15T07:01:51.121Z,1020.37
2019-02-15T07:02:51.093Z,1020.38
2019-02-15T07:03:51.080Z,1020.37
2019-02-15T07:04:51.070Z,1020.34
2019-02-15T07:05:51.055Z,1020.39
2019-02-15T07:06:51.080Z,1020.35
2019-02-15T07:07:51.033Z,1020.38
2019-02-15T07:08:51.025Z,1020.40
2019-02-15T07:09:51.012Z,1020.36
2019-02-15T07:10:50.998Z,1020.41
2019-02-15T07:11:50.987Z,1020.39
2019-02-15T07:12:50.997Z,1020.38
2019-02-15T07:13:50.964Z,1020.38
2019-02-15T07:14:50.953Z,1020.42
2019-02-15T07:15:50.944Z,1020.35
2019-02-15T07:16:50.940Z,1020.39
2019-02-15T07:17:50.937Z,1020.40
2019-02-15T07:18:50.906Z,1020.36
2019-02-15T07:19:50.897Z,1020.38
2019-02-15T07:20:50.883Z,1020.44
2019-02-15T07:21:50.874Z,1020.36
2019-02-15T07:22:50.887Z,1020.40
2019-02-15T07:23:50.853Z,1020.38
2019-02-15T07:24:50.840Z,1020.39
2019-02-15T07:25:50.830Z,1020.36
2019-02-15T07:26:50.817Z,1020.38
2019-02-15T07:27:50.860Z,1020.36
2019-02-15T07:28:50.793Z,1020.38
2019-02-15T07:29:50.783Z,1020.32
2019-02-15T07:30:50.771Z,1020.32
2019-02-15T07:31:50.759Z,1020.31
2019-02-15T07:32:50.766Z,1020.35
2019-02-15T07:33:50.734Z,1020.37
2019-02-15T07:34:50.725Z,1020.33
2019-02-15T07:35:50.713Z,1020.34
2019-02-15T07:36:50.702Z,1020.35
2019-02-15T07:37:52.321Z,1020.32
2019-02-15T07:38:50.679Z,1020.32
2019-02-15T07:39:50.669Z,1020.35
2019-02-15T07:40:50.657Z,1020.36
2019-02-15T07:41:50.644Z,1020.26
2019-02-15T07:42:50.673Z,1020.30
2019-02-15T07:43:50.624Z,1020.35
2019-02-15T07:44:50.614Z,1020.32
2019-02-15T07:45:50.602Z,1020.34
2019-02-15T07:46:50.588Z,1020.34
2019-02-15T07:47:50.576Z,1020.34
2019-02-15T07:48:50.583Z,1020.32
2019-02-15T07:49:50.555Z,1020.28
2019-02-15T07:50:50.543Z,1020.30
2019-02-15T07:51:50.531Z,1020.28
2019-02-15T07:52:50.523Z,1020.29
2019-02-15T07:53:50.529Z,1020.27
2019-02-15T07:54:50.500Z,1020.28
2019-02-15T07:55:50.486Z,1020.28
2019-02-15T07:56:50.479Z,1020.33
2019-02-15T07:57:50.464Z,1020.31
2019-02-15T07:58:50.493Z,1020.24
2019-02-15T07:59:50.612Z,1020.22
2019-02-15T08:00:50.429Z,1020.29
2019-02-15T08:01:50.432Z,1020.33
2019-02-15T08:02:50.406Z,1020.33
2019-02-15T08:03:50.395Z,1020.35
2019-02-15T08:04:50.400Z,1020.36
2019-02-15T08:05:50.370Z,1020.42
2019-02-15T08:06:50.357Z,1020.39
2019-02-15T08:07:50.347Z,1020.41
2019-02-15T08:08:50.335Z,1020.42
2019-02-15T08:09:50.342Z,1020.33
2019-02-15T08:10:50.313Z,1020.27
2019-02-15T08:11:50.301Z,1020.27
2019-02-15T08:12:50.291Z,1020.30
2019-02-15T08:13:50.279Z,1020.32
2019-02-15T08:14:50.283Z,1020.34
2019-02-15T08:15:52.172Z,1020.35
2019-02-15T08:16:50.241Z,1020.26
2019-02-15T08:17:50.228Z,1020.24
2019-02-15T08:18:50.219Z,1020.25
2019-02-15T08:19:50.223Z,1020.15
2019-02-15T08:20:50.192Z,1020.06
2019-02-15T08:21:50.181Z,1020.05
2019-02-15T08:22:50.171Z,1020.08
2019-02-15T08:23:50.157Z,1020.04
2019-02-15T08:24:50.167Z,1020.05
2019-02-15T08:25:50.133Z,1020.04
2019-02-15T08:26:50.131Z,1020.12
2019-02-15T08:27:50.112Z,1020.10
2019-02-15T08:28:50.099Z,1020.20
2019-02-15T08:29:50.113Z,1020.16
2019-02-15T08:30:50.076Z,1020.10
2019-02-15T08:31:50.063Z,1020.08
2019-02-15T08:32:50.053Z,1020.15
2019-02-15T08:33:50.040Z,1020.19
2019-02-15T08:34:50.028Z,1020.24
2019-02-15T08:35:50.035Z,1020.29
2019-02-15T08:36:50.004Z,1020.30
2019-02-15T08:37:49.992Z,1020.28
2019-02-15T08:38:49.982Z,1020.31
2019-02-15T08:39:49.970Z,1020.30
2019-02-15T08:40:49.977Z,1020.22
2019-02-15T08:42:01.243Z,1020.26
2019-02-15T08:42:50.935Z,1020.27
2019-02-15T08:43:49.922Z,1020.25
2019-02-15T08:44:49.909Z,1020.24
2019-02-15T08:45:49.926Z,1020.22
2019-02-15T08:46:49.887Z,1020.29
2019-02-15T08:47:49.876Z,1020.24
2019-02-15T08:48:49.863Z,1020.25
2019-02-15T08:49:49.852Z,1020.30
2019-02-15T08:50:49.862Z,1020.25
2019-02-15T08:51:49.829Z,1020.24
2019-02-15T08:52:49.817Z,1020.23
2019-02-15T08:53:50.464Z,1020.26
2019-02-15T08:54:49.794Z,1020.20
2019-02-15T08:55:49.803Z,1020.25
2019-02-15T08:56:49.775Z,1020.24
2019-02-15T08:57:49.758Z,1020.25
2019-02-15T08:58:49.749Z,1020.23
2019-02-15T08:59:49.734Z,1020.25
2019-02-15T09:00:49.754Z,1020.23
2019-02-15T09:01:49.717Z,1020.22
2019-02-15T09:02:49.700Z,1020.19
2019-02-15T09:03:49.704Z,1020.20
2019-02-15T09:04:49.676Z,1020.25
2019-02-15T09:05:49.668Z,1020.19
2019-02-15T09:06:49.673Z,1020.14
2019-02-15T09:07:49.642Z,1020.16
2019-02-15T09:08:49.635Z,1020.16
2019-02-15T09:09:49.619Z,1020.14
2019-02-15T09:10:49.610Z,1020.15
2019-02-15T09:11:49.613Z,1020.18
2019-02-15T09:12:49.586Z,1020.09
2019-02-15T09:13:49.578Z,1020.12
2019-02-15T09:14:49.560Z,1020.12
2019-02-15T09:15:49.549Z,1020.11
2019-02-15T09:16:49.565Z,1020.07
2019-02-15T09:17:49.524Z,1020.11
2019-02-15T09:18:49.514Z,1020.07
2019-02-15T09:19:49.505Z,1020.10
2019-02-15T09:20:49.491Z,1020.04
2019-02-15T09:21:49.480Z,1020.08
2019-02-15T09:22:49.487Z,1020.08
2019-02-15T09:23:49.458Z,1020.11
2019-02-15T09:24:49.447Z,1020.07
2019-02-15T09:25:49.434Z,1020.08
2019-02-15T09:26:49.424Z,1020.04
2019-02-15T09:27:49.429Z,1020.08
2019-02-15T09:28:49.403Z,1020.08
2019-02-15T09:29:49.390Z,1020.09
2019-02-15T09:30:49.377Z,1020.08
2019-02-15T09:31:49.368Z,1020.04
2019-02-15T09:32:49.373Z,1020.05
2019-02-15T09:33:49.346Z,1019.99
2019-02-15T09:34:49.336Z,1019.99
2019-02-15T09:35:49.321Z,1019.99
2019-02-15T09:36:49.318Z,1019.94
2019-02-15T09:37:49.337Z,1019.93
2019-02-15T09:38:49.286Z,1020.00
2019-02-15T09:39:49.274Z,1019.96
2019-02-15T09:40:49.263Z,1019.94
2019-02-15T09:41:49.258Z,1019.91
2019-02-15T09:42:49.245Z,1019.96
2019-02-15T09:43:49.278Z,1019.95
2019-02-15T09:44:49.221Z,1019.94
2019-02-15T09:45:49.209Z,1019.88
2019-02-15T09:46:49.197Z,1019.92
2019-02-15T09:47:49.198Z,1019.88
2019-02-15T09:48:49.282Z,1019.89
2019-02-15T09:49:49.161Z,1019.90
2019-02-15T09:50:49.149Z,1019.88
2019-02-15T09:51:49.139Z,1019.95
2019-02-15T09:52:49.128Z,1019.95
2019-02-15T09:53:49.138Z,1019.94
2019-02-15T09:54:49.104Z,1019.94
2019-02-15T09:55:49.094Z,1019.96
2019-02-15T09:56:49.084Z,1019.89
2019-02-15T09:57:49.076Z,1019.89
2019-02-15T09:58:49.081Z,1020.00
2019-02-15T09:59:49.048Z,1019.93
2019-02-15T10:00:49.037Z,1019.96
2019-02-15T10:01:49.026Z,1019.98
2019-02-15T10:02:49.014Z,1020.07
2019-02-15T10:03:49.023Z,1019.88
2019-02-15T10:04:49.001Z,1019.92
2019-02-15T10:05:48.980Z,1019.97
2019-02-15T10:06:48.969Z,1019.91
2019-02-15T10:07:48.961Z,1019.90
2019-02-15T10:08:48.967Z,1019.91
2019-02-15T10:09:49.112Z,1019.92
2019-02-15T10:10:48.926Z,1019.91
2019-02-15T10:11:48.913Z,1019.91
2019-02-15T10:12:48.904Z,1019.89
2019-02-15T10:13:48.909Z,1019.87
2019-02-15T10:14:48.880Z,1019.90
2019-02-15T10:15:48.868Z,1019.88
2019-02-15T10:16:48.857Z,1019.93
2019-02-15T10:17:48.877Z,1019.89
2019-02-15T10:18:48.859Z,1019.90
2019-02-15T10:19:48.829Z,1019.91
2019-02-15T10:20:48.814Z,1019.90
2019-02-15T10:21:48.801Z,1019.88
2019-02-15T10:22:48.791Z,1019.90
2019-02-15T10:23:48.778Z,1019.92
2019-02-15T10:24:48.785Z,1019.88
2019-02-15T10:25:48.756Z,1019.87
2019-02-15T10:26:48.744Z,1019.89
2019-02-15T10:27:48.733Z,1019.82
2019-02-15T10:28:48.724Z,1019.84
2019-02-15T10:29:48.737Z,1019.88
2019-02-15T10:30:48.708Z,1019.81
2019-02-15T10:31:48.686Z,1019.84
2019-02-15T10:32:48.676Z,1019.87
2019-02-15T10:33:48.668Z,1019.83
2019-02-15T10:34:48.681Z,1019.84
2019-02-15T10:35:48.646Z,1019.85
2019-02-15T10:36:48.632Z,1019.86
2019-02-15T10:37:48.624Z,1019.82
2019-02-15T10:38:48.628Z,1019.79
2019-02-15T10:39:48.597Z,1019.76
2019-02-15T10:40:48.605Z,1019.77
2019-02-15T10:41:48.574Z,1019.79
2019-02-15T10:42:48.567Z,1019.79
2019-02-15T10:43:48.551Z,1019.77
2019-02-15T10:44:48.541Z,1019.79
2019-02-15T10:45:48.547Z,1019.80
2019-02-15T10:46:48.523Z,1019.76
2019-02-15T10:47:48.506Z,1019.74
2019-02-15T10:48:48.496Z,1019.78
2019-02-15T10:49:48.485Z,1019.80
2019-02-15T10:50:48.494Z,1019.76
2019-02-15T10:51:48.465Z,1019.72
2019-02-15T10:52:48.448Z,1019.71
2019-02-15T10:53:48.443Z,1019.70
2019-02-15T10:54:48.427Z,1019.70
2019-02-15T10:55:48.444Z,1019.76
2019-02-15T10:56:48.405Z,1019.76
2019-02-15T10:57:48.394Z,1019.72
2019-02-15T10:58:48.384Z,1019.73
2019-02-15T10:59:48.370Z,1019.79
2019-02-15T11:00:48.379Z,1019.71
2019-02-15T11:01:48.351Z,1019.71
2019-02-15T11:02:48.339Z,1019.70
2019-02-15T11:03:48.325Z,1019.64
2019-02-15T11:04:48.313Z,1019.68
2019-02-15T11:05:48.323Z,1019.71
2019-02-15T11:06:48.292Z,1019.67
2019-02-15T11:07:48.280Z,1019.64
2019-02-15T11:08:48.271Z,1019.66
2019-02-15T11:09:48.259Z,1019.65
2019-02-15T11:10:48.265Z,1019.68
2019-02-15T11:11:48.236Z,1019.69
2019-02-15T11:12:48.224Z,1019.69
2019-02-15T11:13:48.214Z,1019.69
2019-02-15T11:14:48.209Z,1019.67
2019-02-15T11:15:48.210Z,1019.70
2019-02-15T11:16:48.190Z,1019.63
2019-02-15T11:17:48.194Z,1019.65
2019-02-15T11:18:48.161Z,1019.61
2019-02-15T11:19:48.145Z,1019.63
2019-02-15T11:20:48.156Z,1019.67
2019-02-15T11:21:48.122Z,1019.65
2019-02-15T11:22:48.117Z,1019.64
2019-02-15T11:23:48.100Z,1019.57
2019-02-15T11:24:48.089Z,1019.59
2019-02-15T11:25:48.080Z,1019.57
2019-02-15T11:26:48.088Z,1019.58
2019-02-15T11:27:48.068Z,1019.53
2019-02-15T11:28:48.051Z,1019.62
2019-02-15T11:29:48.087Z,1019.57
2019-02-15T11:30:48.067Z,1019.49
2019-02-15T11:31:48.036Z,1019.49
2019-02-15T11:32:47.996Z,1019.54
2019-02-15T11:33:47.985Z,1019.51
2019-02-15T11:34:47.974Z,1019.49
2019-02-15T11:35:48.042Z,1019.48
2019-02-15T11:36:48.141Z,1019.45
2019-02-15T11:37:47.939Z,1019.49
2019-02-15T11:38:48.061Z,1019.47
2019-02-15T11:39:47.917Z,1019.48
2019-02-15T11:40:48.082Z,1019.49
2019-02-15T11:41:48.065Z,1019.42
2019-02-15T11:42:48.038Z,1019.43
2019-02-15T11:43:47.872Z,1019.43
2019-02-15T11:44:47.864Z,1019.42
2019-02-15T11:45:47.849Z,1019.45
2019-02-15T11:46:56.261Z,1019.39
2019-02-15T11:47:49.085Z,1019.38
2019-02-15T11:48:48.114Z,1019.35
2019-02-15T11:49:47.803Z,1019.37
2019-02-15T11:50:47.801Z,1019.35
2019-02-15T11:51:47.783Z,1019.35
2019-02-15T11:52:47.792Z,1019.30
2019-02-15T11:53:47.760Z,1019.29
2019-02-15T11:54:47.747Z,1019.27
2019-02-15T11:55:47.737Z,1019.33
2019-02-15T11:56:47.752Z,1019.31
2019-02-15T11:57:47.728Z,1019.29
2019-02-15T11:58:47.725Z,1019.30
2019-02-15T11:59:47.693Z,1019.27
2019-02-15T12:00:47.682Z,1019.24
2019-02-15T12:01:47.669Z,1019.26
2019-02-15T12:02:47.663Z,1019.16
2019-02-15T12:03:47.671Z,1019.16
2019-02-15T12:04:47.636Z,1019.10
2019-02-15T12:05:47.624Z,1019.08